Arcadia, Texas
Current Conditions -  °F | °C
As of 8:53 AM on Wednesday 26 Nov 2014 (Local Time) from KLVJ Reporting Station
Clear Clear  
Wind Chill: 13°   Ceiling: Unl
Heat Index: 13°   Visibility: 10mi
Dew Point:   Wind: 8mph
Humidity: 69%   Direction: 240°WSW
Pressure: 30.27"   Gusts: NA
Location:  29.3723°N, 95.1328°W
Report Text: KLVJ 261453Z AUTO 24007KT 200V260 10SM CLR 13/08 A3027 RMK AO2 SLP249 T01330078 53011
Loading
Personal Weather Stations






























Interactive Weather Map New forecast layout! Learn more

10-Day Weather Forecast

Advertisements
Track Severe Weather on mobile